x

Edisto - 41 Nm Southeast Of Charleston, Sc (41004) Wave Buoy

10:50pm - Mon 1st Sep 2014 All times are EDT. -4 hours from GMT.

  • Sig Wave height 2.0ft
  • Swell Direction
  • Peak Period 8s
  • Average Period 5s
  • Wind
    11mph, 13mph gusts
  • Sea Temp 84°f
  • Air Temp 83°f
  • Sea Pressure 1018.8mb
  • Edisto - 41 Nm Southeast Of Charleston, Sc
  • Edisto - 41 Nm Southeast Of Charleston, Sc

More Historic Weather Station data

Upgrade to MSW Pro to gain access to the past 30 days of data for over 8000 Wavebouys and Weather Stations around the globe.

Join Pro

Comparision Forecast

View Surf forecast
   
Mon 09/01 10:50pm 2ft 8s 5s 11 13 mph 1018.8mb 84f 83f
9:50pm 2.5ft 8s 5s 7 9 mph 1019mb 84f 83f
8:50pm 2.5ft 8s 5s 7
mph
1018.5mb 83f 83f
7:50pm 2.5ft 8s 6s 7 9 mph 1018mb 84f 83f
6:50pm 2.5ft 8s 5s 7 9 mph 1018mb 84f 83f
5:50pm 2.5ft 9s 6s 11
mph
1018mb 85f 83f
4:50pm 2.5ft 9s 6s 9 11 mph 1018mb 85f 83f
3:50pm 2.5ft 9s 6s 7 9 mph 1018.4mb 85f 83f
2:50pm 2.5ft 8s 5s 7 9 mph 1018.7mb 85f 83f
1:50pm 2.5ft 8s 6s 4 7 mph 1019.1mb 86f 84f
12:50pm 2.5ft 8s 6s 2 4 mph 1019.3mb 86f 83f
11:50am 2.5ft 8s 6s  -  2 mph 1019.7mb 84f 84f
10:50am 2.5ft 8s 6s  -  2 mph 1020.2mb 84f 84f
9:50am 2.5ft 9s 6s 2
mph
1019.6mb 83f 83f
8:50am 2.5ft 9s 6s 2
mph
1019.6mb 83f 83f
7:50am 2.5ft 8s 6s 4 7 mph 1019.6mb 83f 82f
6:50am 2.5ft 9s 6s 7 9 mph 1019.1mb 83f 82f
5:50am 2.5ft 9s 6s 9 11 mph 1018.4mb 83f 82f
4:50am 3ft 9s 6s 9 11 mph 1018.1mb 83f 82f
3:50am 2.5ft 8s 6s 11 13 mph 1017.9mb 83f 82f
2:50am 2.5ft 9s 5s 11 13 mph 1018.7mb 83f 82f
1:50am 2.5ft 9s 6s 11 13 mph 1019.2mb 83f 82f
12:50am 2.5ft 9s 6s 9 11 mph 1019.4mb 83f 82f
Sun 08/31 11:50pm 2.5ft 9s 6s 9 11 mph 1019.5mb 83f 82f
10:50pm 2.5ft 9s 6s 9 11 mph 1019.8mb 83f 82f
9:50pm 2.5ft 8s 6s 9
mph
1019.7mb 83f 82f
8:50pm 2.5ft 9s 6s 9 11 mph 1019.3mb 83f 82f
7:50pm 2.5ft 9s 6s 9 11 mph 1018.4mb 83f 82f
6:50pm 2.5ft 9s 6s 9 11 mph 1018.4mb 83f 82f
5:50pm 2.5ft 9s 6s 9
mph
1018.2mb 83f 82f
4:50pm 2.5ft 10s 6s 4 7 mph 1018.5mb 83f 82f
3:50pm 2.5ft 9s 6s 2 4 mph 1019mb 83f 82f
2:50pm 2.5ft 10s 6s 4 7 mph 1019.5mb 83f 82f
1:50pm 2.5ft 9s 6s 7
mph
1019.9mb 83f 81f
12:50pm 2.5ft 10s 6s 7
mph
1020.1mb 83f 81f
11:50am 2.5ft 9s 6s 4
mph
1021mb 83f 80f
10:50am 2.5ft 10s 6s 4 7 mph 1021.2mb 83f 80f
9:50am 3ft 9s 6s 2 7 mph 1020.9mb 83f 78f
8:50am 3ft 8s 6s 4 7 mph 1020.6mb 83f 81f
7:50am 3.5ft 10s 6s 7 9 mph 1020.8mb 83f 81f
6:50am 3ft 9s 5s 4 7 mph 1020.4mb 83f 82f
5:50am 3ft 10s 5s 7
mph
1019.8mb 83f 82f
4:50am 3ft 8s 5s 9 11 mph 1019.7mb 83f 82f
3:50am 3ft 8s 5s 11 13 mph 1019.7mb 83f 83f
2:50am 3ft 8s 5s 11 13 mph 1020mb 83f 83f
1:50am 3ft 8s 5s 13 16 mph 1020mb 83f 83f
12:50am 2.5ft 8s 5s 13 16 mph 1020.2mb 83f 84f
Sat 08/30 11:50pm 2.5ft 8s 5s 9 11 mph 1020.5mb 83f 84f
10:50pm 3ft 8s 5s 11 13 mph 1020.5mb 83f 83f
9:50pm 3ft 8s 5s 13 16 mph 1020mb 83f 84f
8:50pm 2.5ft 8s 4s 13 16 mph 1019.6mb 84f 84f
7:50pm 2.5ft 8s 5s 11 13 mph 1019.1mb 84f 83f
6:50pm 2.5ft 8s 5s 11 13 mph 1019.2mb 84f 84f
5:50pm 2.5ft 9s 5s 11 13 mph 1019.4mb 84f 83f
4:50pm 2.5ft 8s 5s 11 13 mph 1019.5mb 84f 84f
3:50pm 2.5ft 8s 6s 9 11 mph 1019.8mb 84f 83f
2:50pm 2.5ft 9s 6s 9 11 mph 1020.5mb 84f 83f
1:50pm 2.5ft 8s 6s 7 11 mph 1021.1mb 83f 83f
12:50pm 2.5ft 9s 6s 9 13 mph 1021.7mb 83f 82f
11:50am 2.5ft 8s 5s 9 11 mph 1021.7mb 83f 82f
10:50am 2.5ft 8s 5s 9 11 mph 1022mb 83f 82f
9:50am 2.5ft 8s 6s 11
mph
1021.6mb 83f 82f
8:50am 2.5ft 8s 6s 9 11 mph 1021.1mb 83f 82f
7:50am 3ft 8s 6s 9 11 mph 1020.9mb 83f 82f
6:50am 3ft 8s 6s 7
mph
1020.9mb 83f 82f
5:50am 3ft 8s 6s 2 4 mph 1020.3mb 83f 82f
4:50am 2.5ft 8s 6s 2
mph
1019.9mb 83f 82f
3:50am 2.5ft 8s 6s  -  mph 1019.8mb 83f 82f
2:50am 3ft 8s 6s 2
mph
1019.8mb 83f 83f
1:50am 2.5ft 8s 6s 4 7 mph 1020.2mb 83f 83f
12:50am 2.5ft 8s 6s 7 9 mph 1019.7mb 83f 83f
Fri 08/29 11:50pm 2.5ft 8s 6s 9 11 mph 1019.7mb 83f 83f
10:50pm 2.5ft 8s 6s 9 11 mph 1019.7mb 83f 83f
9:50pm 2.5ft 8s 6s 9 11 mph 1019.3mb 83f 83f
8:50pm 3ft 8s 6s 9 11 mph 1018.7mb 83f 83f
7:50pm 2.5ft 8s 5s 9
mph
1018.4mb 84f 83f
6:50pm 3ft 9s 5s 7
mph
1018.1mb 83f 83f
5:50pm 3.5ft 9s 5s 11 13 mph 1017.9mb 84f 83f
4:50pm 3ft 9s 5s 9 11 mph 1017.9mb 84f 82f
3:50pm 2.5ft 9s 6s 11 13 mph 1018mb 84f 82f
2:50pm 2.5ft 9s 7s 4
mph
1018.3mb 87f 83f
1:50pm 2.5ft 8s 7s  -  2 mph 1018.6mb 86f 84f
12:50pm 3ft 9s 7s  -  2 mph 1018.7mb 85f 83f
11:50am 3ft 9s 6s 4
mph
1018.7mb 84f 82f
10:50am 3.5ft 9s 6s 2 4 mph 1018.7mb 84f 82f
9:50am 3.5ft 9s 6s 4
mph
1018.4mb 83f 82f
8:50am 3ft 9s 6s 4
mph
1018.2mb 83f 82f
7:50am 3.5ft 8s 7s 9 11 mph 1017.8mb 83f 82f
6:50am 3.5ft 9s 7s 7 9 mph 1017.4mb 83f 82f
5:50am 4ft 9s 7s 9
mph
1016.9mb 83f 82f
4:50am 3.5ft 9s 6s 9 11 mph 1016.5mb 83f 82f
3:50am 4ft 8s 7s 9 11 mph 1016.3mb 83f 82f